地図

経路データ

SID SEASON NUMBER BASIN SUBBASIN NAME ISO_TIME NATURE LAT LON WMO_WIND WMO_PRES WMO_AGENCY TRACK_TYPE DIST2LAND LANDFALL IFLAG USA_AGENCY USA_ATCF_ID USA_LAT USA_LON USA_RECORD USA_STATUS USA_WIND USA_PRES USA_SSHS USA_R34_NE USA_R34_SE USA_R34_SW USA_R34_NW USA_R50_NE USA_R50_SE USA_R50_SW USA_R50_NW USA_R64_NE USA_R64_SE USA_R64_SW USA_R64_NW USA_POCI USA_ROCI USA_RMW USA_EYE TOKYO_LAT TOKYO_LON TOKYO_GRADE TOKYO_WIND TOKYO_PRES TOKYO_R50_DIR TOKYO_R50_LONG TOKYO_R50_SHORT TOKYO_R30_DIR TOKYO_R30_LONG TOKYO_R30_SHORT TOKYO_LAND CMA_LAT CMA_LON CMA_CAT CMA_WIND CMA_PRES HKO_LAT HKO_LON HKO_CAT HKO_WIND HKO_PRES NEWDELHI_LAT NEWDELHI_LON NEWDELHI_GRADE NEWDELHI_WIND NEWDELHI_PRES NEWDELHI_CI NEWDELHI_DP NEWDELHI_POCI REUNION_LAT REUNION_LON REUNION_TYPE REUNION_WIND REUNION_PRES REUNION_TNUM REUNION_CI REUNION_RMW REUNION_R34_NE REUNION_R34_SE REUNION_R34_SW REUNION_R34_NW REUNION_R50_NE REUNION_R50_SE REUNION_R50_SW REUNION_R50_NW REUNION_R64_NE REUNION_R64_SE REUNION_R64_SW REUNION_R64_NW BOM_LAT BOM_LON BOM_TYPE BOM_WIND BOM_PRES BOM_TNUM BOM_CI BOM_RMW BOM_R34_NE BOM_R34_SE BOM_R34_SW BOM_R34_NW BOM_R50_NE BOM_R50_SE BOM_R50_SW BOM_R50_NW BOM_R64_NE BOM_R64_SE BOM_R64_SW BOM_R64_NW BOM_ROCI BOM_POCI BOM_EYE BOM_POS_METHOD BOM_PRES_METHOD NADI_LAT NADI_LON NADI_CAT NADI_WIND NADI_PRES WELLINGTON_LAT WELLINGTON_LON WELLINGTON_WIND WELLINGTON_PRES DS824_LAT DS824_LON DS824_STAGE DS824_WIND DS824_PRES TD9636_LAT TD9636_LON TD9636_STAGE TD9636_WIND TD9636_PRES TD9635_LAT TD9635_LON TD9635_WIND TD9635_PRES TD9635_ROCI NEUMANN_LAT NEUMANN_LON NEUMANN_CLASS NEUMANN_WIND NEUMANN_PRES MLC_LAT MLC_LON MLC_CLASS MLC_WIND MLC_PRES USA_GUST BOM_GUST BOM_GUST_PER REUNION_GUST REUNION_GUST_PER USA_SEAHGT USA_SEARAD_NE USA_SEARAD_SE USA_SEARAD_SW USA_SEARAD_NW STORM_SPEED STORM_DIR
1977106S12202 1977 36 SP MM ROBERT 1977-04-16 00:00:00 TS -12.0000 -158.000 main 1551 1551 O________OO_O_ jtwc_sh SH241977 -12.0000 -158.000 25 -1 -12.0000 202.000 TC 25 -12.0000 -158.000 1 25 -12.0000 -158.000 TC 25 13 85
1977106S12202 1977 36 SP MM ROBERT 1977-04-16 03:00:00 TS -11.9422 -157.316 main 1628 1628 P________PP_P_ SH241977 -11.9330 -157.260 27 -1 -11.9330 -157.260 TC 27 -11.9704 -157.339 1 27 -11.9327 -157.405 TC 27 13 86
1977106S12202 1977 36 SP MM ROBERT 1977-04-16 06:00:00 TS -11.9130 -156.678 main 1693 1693 O________OP_O_ jtwc_sh SH241977 -11.9000 -156.600 30 -1 -11.9000 203.400 TC 30 -11.9518 -156.712 1 30 -11.9000 -156.800 TC 30 12 90
1977106S12202 1977 36 SP MM ROBERT 1977-04-16 09:00:00 TS -11.9349 -156.129 main 1758 1758 P________PP_P_ SH241977 -11.9273 -156.083 32 -1 -11.9273 -156.083 TC 32 -11.9573 -156.154 1 32 -11.9276 -156.198 TC 32 10 98
1977106S12202 1977 36 SP MM ROBERT 1977-04-16 12:00:00 TS -12.0588 -155.659 40 990 wellington main 1798 1798 O_______OOO_O_ jtwc_sh SH241977 -12.0000 -155.700 35 0 -13.0000 -155.000 40 990 -12.0000 204.300 TC 35 -12.0000 -155.700 2 35 -12.0000 -155.700 TC 35 8 109
1977106S12202 1977 36 SP MM ROBERT 1977-04-16 15:00:00 TS -12.1886 -155.380 main 1829 1829 P_______PPP_P_ SH241977 -12.0849 -155.398 35 0 -13.0114 -155.320 40 990 -12.0849 -155.398 TC 35 -12.0884 -155.374 2 35 -12.0848 -155.382 TC 35 5 125
1977106S12202 1977 36 SP MM ROBERT 1977-04-16 18:00:00 TS -12.3316 -155.257 main 1838 1838 O_______POP_O_ jtwc_sh SH241977 -12.2000 -155.200 35 0 -13.0180 -155.612 40 990 -12.2000 204.800 TC 35 -12.2117 -155.163 2 35 -12.2000 -155.200 TC 35 3 151
1977106S12202 1977 36 SP MM ROBERT 1977-04-16 21:00:00 TS -12.4824 -155.215 main 1846 1845 P_______PPP_P_ SH241977 -12.3500 -155.062 35 0 -13.0156 -155.848 40 990 -12.3500 -155.062 TC 35 -12.3542 -155.045 2 35 -12.3425 -155.055 TC 35 3 168
1977106S12202 1977 36 SP MM ROBERT 1977-04-17 00:00:00 TS -12.6000 -155.200 40 990 wellington main 1845 1844 O_______OOO_O_ jtwc_sh SH241977 -12.5000 -155.000 35 0 -13.0000 -156.000 40 990 -12.5000 205.000 TC 35 -12.5000 -155.000 2 35 -12.5000 -155.000 TC 35 2 174
1977106S12202 1977 36 SP MM ROBERT 1977-04-17 03:00:00 TS -12.6907 -155.196 main 1844 1843 P_______PPP_P_ SH241977 -12.6000 -154.970 35 0 -12.9714 -156.052 40 990 -12.6000 -154.970 TC 35 -12.6249 -154.961 2 35 -12.6575 -155.027 TC 35 2 188
1977106S12202 1977 36 SP MM ROBERT 1977-04-17 06:00:00 TS -12.7794 -155.225 main 1843 1831 O_______POP_O_ jtwc_sh SH241977 -12.7000 -155.000 35 0 -12.9473 -156.038 40 990 -12.7000 205.000 TC 35 -12.7498 -154.987 2 35 -12.8000 -155.100 TC 35 2 198
1977106S12202 1977 36 SP MM ROBERT 1977-04-17 09:00:00 TS -12.8864 -155.269 main 1831 1819 P_______PPP_P_ SH241977 -12.8500 -155.070 35 0 -12.9496 -156.005 40 990 -12.8500 -155.070 TC 35 -12.8749 -155.070 2 35 -12.9075 -155.128 TC 35 3 211
1977106S12202 1977 36 SP MM ROBERT 1977-04-17 12:00:00 TS -13.0000 -155.360 40 990 wellington main 1819 1808 O_______OOO_O_ jtwc_sh SH241977 -13.0000 -155.200 35 0 -13.0000 -156.000 40 990 -13.0000 204.800 TC 35 -13.0000 -155.200 2 35 -13.0000 -155.200 TC 35 3 227
1977106S12202 1977 36 SP MM ROBERT 1977-04-17 15:00:00 TS -13.1076 -155.517 main 1808 1785 P_______PPP_P_ SH241977 -13.1000 -155.385 35 0 -13.1410 -156.089 40 990 -13.1000 -155.385 TC 35 -13.1047 -155.349 2 36 -13.0925 -155.378 TC 35 4 236
1977106S12202 1977 36 SP MM ROBERT 1977-04-17 18:00:00 TS -13.2280 -155.710 main 1785 1762 O_______POP_O_ jtwc_sh SH241977 -13.2000 -155.600 35 0 -13.3275 -156.212 40 990 -13.2000 204.400 TC 35 -13.2125 -155.540 2 37 -13.2000 -155.600 TC 35 5 235
1977106S12202 1977 36 SP MM ROBERT 1977-04-17 21:00:00 TS -13.3694 -155.899 main 1762 1740 P_______PPP_P_ SH241977 -13.3275 -155.793 37 0 -13.5253 -156.355 40 990 -13.3275 -155.793 TC 37 -13.3391 -155.761 2 38 -13.3275 -155.793 TC 37 5 231
1977106S12202 1977 36 SP MM ROBERT 1977-04-18 00:00:00 TS -13.5400 -156.100 40 990 wellington main 1740 1717 O_______OOO_O_ jtwc_sh SH241977 -13.5000 -156.000 40 0 -13.7000 -156.500 40 990 -13.5000 204.000 TC 40 -13.5000 -156.000 2 40 -13.5000 -156.000 TC 40 6 227
1977106S12202 1977 36 SP MM ROBERT 1977-04-18 03:00:00 TS -13.7511 -156.326 main 1717 1695 P_______PPP_P_ SH241977 -13.7350 -156.242 40 0 -13.8160 -156.645 40 990 -13.7350 -156.242 TC 40 -13.7345 -156.256 2 40 -13.7350 -156.242 TC 40 6 226
1977106S12202 1977 36 SP MM ROBERT 1977-04-18 06:00:00 TS -13.9805 -156.562 main 1684 1662 O_______POP_O_ jtwc_sh SH241977 -14.0000 -156.500 40 0 -13.9025 -156.788 40 990 -14.0000 203.500 TC 40 -14.0002 -156.522 2 40 -14.0000 -156.500 TC 40 6 225
1977106S12202 1977 36 SP MM ROBERT 1977-04-18 09:00:00 TS -14.2077 -156.794 main 1662 1641 P_______PPP_P_ SH241977 -14.2725 -156.757 40 0 -13.9628 -156.911 40 990 -14.2725 -156.757 TC 40 -14.2658 -156.777 2 40 -14.2650 -156.765 TC 40 6 225
1977106S12202 1977 36 SP MM ROBERT 1977-04-18 12:00:00 TS -14.4000 -157.000 40 990 wellington main 1641 1619 O_______OOO_O_ jtwc_sh SH241977 -14.5000 -157.000 40 0 -14.0000 -157.000 40 990 -14.5000 203.000 TC 40 -14.5000 -157.000 2 40 -14.5000 -157.000 TC 40 5 231
1977106S12202 1977 36 SP MM ROBERT 1977-04-18 15:00:00 TS -14.5048 -157.174 main 1619 1608 P_______PPP_P_ SH241977 -14.6150 -157.230 40 0 -13.9809 -157.036 40 990 -14.6150 -157.230 TC 40 -14.6405 -157.202 2 40 -14.6725 -157.173 TC 40 3 238
1977106S12202 1977 36 SP MM ROBERT 1977-04-18 18:00:00 TS -14.5795 -157.300 main 1609 1598 O_______POP_O_ jtwc_sh SH241977 -14.7000 -157.400 40 0 -13.9475 -157.038 40 990 -14.7000 202.600 TC 40 -14.7499 -157.363 2 40 -14.8000 -157.300 TC 40 3 231
1977106S12202 1977 36 SP MM ROBERT 1977-04-18 21:00:00 TS -14.6694 -157.383 main 1598 1598 P_______PPP_P_ SH241977 -14.8275 -157.495 40 0 -13.9403 -157.020 40 990 -14.8275 -157.495 TC 40 -14.8593 -157.467 2 40 -14.8925 -157.437 TC 40 2 204
1977106S12202 1977 36 SP MM ROBERT 1977-04-19 00:00:00 TS -14.8000 -157.400 40 990 wellington main 1599 1599 O_______OOO_O_ jtwc_sh SH241977 -15.0000 -157.500 40 0 -14.0000 -157.000 40 990 -15.0000 202.500 TC 40 -15.0000 -157.500 2 40 -15.0000 -157.500 TC 40 3 0
1977106S12202 1977 36 SP MM ROBERT 1977-04-19 03:00:00 TS -14.9983 -157.357 main 1600 1600 P_______PPP_P_ SH241977 -15.2350 -157.430 40 0 -14.1374 -157.040 43 987 -15.2350 -157.430 TC 40 -15.2141 -157.447 2 41 -15.1700 -157.438 TC 40 5 163
1977106S12202 1977 36 SP MM ROBERT 1977-04-19 06:00:00 TS -15.2425 -157.260 main 1612 1612 O_______POP_O_ jtwc_sh SH241977 -15.5000 -157.300 40 0 -14.3499 -157.074 47 985 -15.5000 202.700 TC 40 -15.4626 -157.325 2 42 -15.4000 -157.300 TC 40 6 158
1977106S12202 1977 36 SP MM ROBERT 1977-04-19 09:00:00 TS -15.5119 -157.139 main 1635 1635 P_______PPP_P_ SH241977 -15.7500 -157.150 42 0 -14.6374 -157.071 51 982 -15.7500 -157.150 TC 42 -15.7297 -157.166 2 43 -15.6925 -157.158 TC 42 6 156
1977106S12202 1977 36 SP MM ROBERT 1977-04-19 12:00:00 TS -15.8000 -157.000 55 980 wellington main 1649 1649 O_______OOO_O_ jtwc_sh SH241977 -16.0000 -157.000 45 0 -15.0000 -157.000 55 980 -16.0000 203.000 TC 45 -16.0000 -157.000 2 45 -16.0000 -157.000 TC 45 6 157
1977106S12202 1977 36 SP MM ROBERT 1977-04-19 15:00:00 TS -16.0830 -156.881 main 1664 1664 P_______PPP_P_ SH241977 -16.2500 -156.900 45 0 -15.4281 -156.842 55 980 -16.2500 -156.900 TC 45 -16.2294 -156.919 2 46 -16.2575 -156.842 TC 45 6 157
1977106S12202 1977 36 SP MM ROBERT 1977-04-19 18:00:00 TS -16.3774 -156.749 main 1689 1689 O_______POP_O_ jtwc_sh SH241977 -16.5000 -156.800 45 0 -15.9250 -156.613 55 980 -16.5000 203.200 TC 45 -16.4620 -156.831 2 47 -16.5000 -156.700 TC 45 7 156
1977106S12202 1977 36 SP MM ROBERT 1977-04-19 21:00:00 TS -16.6740 -156.604 main 1704 1704 P_______PPP_P_ SH241977 -16.7349 -156.680 47 0 -16.4593 -156.326 55 980 -16.7349 -156.680 TC 47 -16.7136 -156.703 2 48 -16.7274 -156.630 TC 47 7 152
1977106S12202 1977 36 SP MM ROBERT 1977-04-20 00:00:00 TS -17.0000 -156.400 55 980 wellington main 1731 1731 O_______OOO_O_ jtwc_sh SH241977 -17.0000 -156.500 50 0 -17.0000 -156.000 55 980 -17.0000 203.500 TC 50 -17.0000 -156.500 2 50 -17.0000 -156.500 TC 50 8 147
1977106S12202 1977 36 SP MM ROBERT 1977-04-20 03:00:00 TS -17.3739 -156.128 main 1770 1770 P_______PPP_P_ SH241977 -17.3274 -156.252 52 0 -17.4994 -155.701 57 977 -17.3274 -156.252 TC 52 -17.3304 -156.231 2 53 -17.3850 -156.203 TC 52 10 142
1977106S12202 1977 36 SP MM ROBERT 1977-04-20 06:00:00 TS -17.7791 -155.768 main 1810 1810 O_______POP_O_ jtwc_sh SH241977 -17.7000 -155.900 55 0 -17.9990 -155.361 60 975 -17.7000 204.100 TC 55 -17.6964 -155.879 2 57 -17.8000 -155.800 TC 55 11 137
1977106S12202 1977 36 SP MM ROBERT 1977-04-20 09:00:00 TS -18.1831 -155.342 main 1871 1871 P_______PPP_P_ SH241977 -18.0924 -155.452 60 0 -18.4991 -154.966 62 972 -18.0924 -155.452 TC 60 -18.0893 -155.437 2 61 -18.1422 -155.402 TC 60 12 132
1977106S12202 1977 36 SP MM ROBERT 1977-04-20 12:00:00 TS -18.6000 -154.820 65 970 wellington main 1933 1933 O_______OOO_O_ jtwc_sh SH241977 -18.5000 -154.900 65 1 -19.0000 -154.500 65 970 -18.5000 205.100 TC 65 -18.5000 -154.900 4 65 -18.5000 -154.900 TC 65 13 129
1977106S12202 1977 36 SP MM ROBERT 1977-04-20 15:00:00 TS -19.0338 -154.247 main 2005 2005 P_______PPP_P_ SH241977 -18.8922 -154.295 70 1 -19.5361 -154.087 66 968 -18.8922 -154.295 TC 70 -18.9059 -154.312 4 68 -18.9425 -154.245 TC 67 15 127
1977106S12202 1977 36 SP MM ROBERT 1977-04-20 18:00:00 TS -19.4786 -153.582 main 2080 2080 O_______POP_O_ jtwc_sh SH241977 -19.3000 -153.600 75 1 -20.0671 -153.584 67 967 -19.3000 206.400 TC 75 -19.3261 -153.628 4 72 -19.4000 -153.500 TC 70 16 124
1977106S12202 1977 36 SP MM ROBERT 1977-04-20 21:00:00 TS -19.9169 -152.848 main 2173 2173 P_______PPP_P_ SH241977 -19.7347 -152.837 77 1 -20.5649 -152.915 68 966 -19.7347 -152.837 TC 77 -19.7583 -152.855 4 76 -19.7918 -152.794 TC 75 17 121
1977106S12202 1977 36 SP MM ROBERT 1977-04-21 00:00:00 TS -20.3600 -152.000 70 965 wellington main 2268 2268 O_______OOO_O_ jtwc_sh SH241977 -20.2000 -152.000 80 1 -21.0000 -152.000 70 965 -20.2000 208.000 TC 80 -20.2000 -152.000 4 80 -20.2000 -152.000 TC 80 19 118
1977106S12202 1977 36 SP MM ROBERT 1977-04-21 03:00:00 TS -20.8153 -151.027 main 2380 2380 P_______PPP_P_ SH241977 -20.7068 -151.145 77 1 -21.2903 -150.668 66 968 -20.7068 -151.145 TC 77 -20.6729 -151.140 4 77 -20.7000 -151.038 TC 77 21 115
1977106S12202 1977 36 SP MM ROBERT 1977-04-21 06:00:00 TS -21.2523 -149.940 main 2505 2505 O_______POP_O_ jtwc_sh SH241977 -21.2000 -150.200 75 1 -21.5132 -149.108 62 972 -21.2000 209.800 TC 75 -21.1483 -150.194 4 75 -21.2000 -150.000 TC 75 22 112
1977106S12202 1977 36 SP MM ROBERT 1977-04-21 09:00:00 TS -21.6472 -148.809 main 2624 2624 P_______PPP_P_ SH241977 -21.6363 -149.174 72 1 -21.7278 -147.494 58 976 -21.6363 -149.174 TC 72 -21.5997 -149.152 4 72 -21.6358 -149.052 TC 72 23 109
1977106S12202 1977 36 SP MM ROBERT 1977-04-21 12:00:00 TS -22.0000 -147.600 55 980 wellington main 2755 2755 O_______OOO_O_ jtwc_sh SH241977 -22.0000 -148.000 70 1 -22.0000 -146.000 55 980 -22.0000 212.000 TC 70 -22.0000 -148.000 4 70 -22.0000 -148.000 TC 70 24 106
1977106S12202 1977 36 SP MM ROBERT 1977-04-21 15:00:00 TS -22.3024 -146.285 main 2893 2893 P_______PPP_P_ SH241977 -22.2726 -146.637 67 1 -22.3841 -144.754 55 980 -22.2726 -146.637 TC 67 -22.3103 -146.690 4 67 -22.2724 -146.709 TC 67 25 103
1977106S12202 1977 36 SP MM ROBERT 1977-04-21 18:00:00 TS -22.5715 -145.005 main 3031 3031 O_______POP_O_ jtwc_sh SH241977 -22.5000 -145.200 65 1 -22.8674 -143.722 55 980 -22.5000 214.800 TC 65 -22.5641 -145.285 4 65 -22.5000 -145.300 TC 65 24 103
1977106S12202 1977 36 SP MM ROBERT 1977-04-21 21:00:00 TS -22.8334 -143.727 main 3166 3166 P_______PPP_P_ SH241977 -22.7494 -143.812 62 0 -23.4176 -142.828 55 980 -22.7494 -143.812 TC 62 -22.7852 -143.862 4 62 -22.7574 -143.870 TC 62 24 102
1977106S12202 1977 36 SP MM ROBERT 1977-04-22 00:00:00 TS -23.0588 -142.471 55 980 wellington main 3293 3293 O_______OOO_O_ jtwc_sh SH241977 -23.0000 -142.500 60 0 -24.0000 -142.000 55 980 -23.0000 217.500 TC 60 -23.0000 -142.500 2 60 -23.0000 -142.500 TC 60 23 100
1977106S12202 1977 36 SP MM ROBERT 1977-04-22 03:00:00 TS -23.2233 -141.302 main 3415 3415 P________PP_P_ SH241977 -23.2486 -141.312 55 0 -23.2486 -141.312 TC 55 -23.2052 -141.280 2 55 -23.1909 -141.304 TC 55 21 101
1977106S12202 1977 36 SP MM ROBERT 1977-04-22 06:00:00 TS -23.4550 -140.183 main 3532 3532 O________OP_O_ jtwc_sh SH241977 -23.5000 -140.200 50 0 -23.5000 219.800 TC 50 -23.4199 -140.133 2 50 -23.4000 -140.200 TC 50 21 103
1977106S12202 1977 36 SP MM ROBERT 1977-04-22 09:00:00 TS -23.6919 -139.072 main 3646 3646 P________PP_P_ SH241977 -23.7192 -139.084 45 0 -23.7192 -139.084 TC 45 -23.6748 -139.045 2 45 -23.6544 -139.077 TC 45 21 105
1977106S12202 1977 36 SP MM ROBERT 1977-04-22 12:00:00 TS -24.0000 -138.000 main 3762 3762 O________OO_O_ jtwc_sh SH241977 -24.0000 -138.000 40 0 -24.0000 222.000 TC 40 -24.0000 -138.000 2 40 -24.0000 -138.000 TC 40 21 111
1977106S12202 1977 36 SP MM ROBERT 1977-04-22 15:00:00 TS -24.4366 -136.932 main 3880 3880 P________PP_P_ SH241977 -24.4044 -136.927 40 0 -24.4044 -136.927 TC 40 -24.4686 -136.888 2 38 -24.4690 -136.985 TC 37 21 116
1977106S12202 1977 36 SP MM ROBERT 1977-04-22 18:00:00 TS -24.9502 -135.905 main 3992 3992 O________OP_O_ jtwc_sh SH241977 -24.9000 -135.900 40 0 -24.9000 224.100 TC 40 -25.0006 -135.819 2 37 -25.0000 -136.000 TC 35 21 120
1977106S12202 1977 36 SP MM ROBERT 1977-04-22 21:00:00 TS -25.5017 -134.892 main 4102 4102 P________PP_P_ SH241977 -25.4723 -134.891 37 0 -25.4723 -134.891 TC 37 -25.5320 -134.841 2 36 -25.5302 -134.948 TC 35 20 121
1977106S12202 1977 36 SP MM ROBERT 1977-04-23 00:00:00 TS -26.0000 -134.000 main 4201 4201 O________OO_O_ jtwc_sh SH241977 -26.0000 -134.000 35 0 -26.0000 226.000 TC 35 -26.0000 -134.000 2 35 -26.0000 -134.000 TC 35 17 120
1977106S12202 1977 36 SP MM ROBERT 1977-04-23 03:00:00 TS -26.3516 -133.276 main 4278 4278 P________PP_P_ SH241977 -26.3520 -133.259 35 0 -26.3520 -133.259 TC 35 -26.3582 -133.332 2 33 -26.3443 -133.252 TC 32 13 118
1977106S12202 1977 36 SP MM ROBERT 1977-04-23 06:00:00 TS -26.6059 -132.727 main 4341 4341 O________OP_O_ jtwc_sh SH241977 -26.6000 -132.700 35 0 -26.6000 227.300 TC 35 -26.6234 -132.808 2 32 -26.6000 -132.700 TC 30 10 118
1977106S12202 1977 36 SP MM ROBERT 1977-04-23 09:00:00 TS -26.8132 -132.325 main 4385 4385 P________PP_P_ SH241977 -26.8077 -132.305 32 -1 -26.8077 -132.305 TC 32 -26.8272 -132.380 2 31 -26.8102 -132.308 TC 30 8 121
1977106S12202 1977 36 SP MM ROBERT 1977-04-23 12:00:00 TS -27.0000 -132.000 main 4418 O________OO_O_ jtwc_sh SH241977 -27.0000 -132.000 30 -1 -27.0000 228.000 TC 30 -27.0000 -132.000 1 30 -27.0000 -132.000 TC 30 7 123

デジタル台風データ・検索

IBTrACS Databaseについて

本データベースは、米国NOAAが公開する1842年以降の世界の熱帯低気圧のベストトラックデータアーカイブInternational Best Track Archive for Climate Stewardship (IBTrACS)を、ウェブで閲覧しやすい形式に変換したものです。

最終更新日:2021-10-19